Time;durP1;ratioP1;P1;durP2;ratioP2;P2;SDS_P1;SDS_P2;PMS_P1;PMS_P2;Temp;Humidity;BMP_temperature;BMP_pressure;BME280_temperature;BME280_humidity;BME280_pressure;Samples;Min_cycle;Max_cycle;Signal;HPM_P1;HPM_P2
2022/08/21 00:00:25;;;;;;;1.85;1.75;;;18.30;78.10;;;;;;5031086;28;20029;-74
2022/08/21 00:02:56;;;;;;;1.50;1.40;;;18.30;78.10;;;;;;5031660;28;20037;-74
2022/08/21 00:05:22;;;;;;;4.28;2.17;;;18.30;78.10;;;;;;5031257;28;20037;-74
2022/08/21 00:07:48;;;;;;;5.03;2.08;;;18.30;78.00;;;;;;5017502;28;20033;-73
2022/08/21 00:10:13;;;;;;;2.33;2.13;;;18.30;78.10;;;;;;5031579;28;20044;-73
2022/08/21 00:12:39;;;;;;;3.40;1.70;;;18.30;78.10;;;;;;5001104;28;20029;-73
2022/08/21 00:15:06;;;;;;;4.00;2.25;;;18.30;78.20;;;;;;5017400;28;20041;-73
2022/08/21 00:17:31;;;;;;;4.63;1.98;;;18.20;78.20;;;;;;5034434;28;20085;-73
2022/08/21 00:19:57;;;;;;;2.25;1.52;;;18.20;78.40;;;;;;5031608;28;20112;-73
2022/08/21 00:22:22;;;;;;;2.97;1.75;;;18.20;78.40;;;;;;5031295;28;20025;-72
2022/08/21 00:24:48;;;;;;;4.20;1.77;;;18.10;78.40;;;;;;5031635;28;20025;-73
2022/08/21 00:27:13;;;;;;;1.48;1.38;;;18.10;78.40;;;;;;5030563;28;20033;-75
2022/08/21 00:29:39;;;;;;;3.97;2.25;;;18.10;78.30;;;;;;5013577;28;20029;-73
2022/08/21 00:32:04;;;;;;;1.55;1.45;;;18.10;78.30;;;;;;5014748;28;20033;-74
2022/08/21 00:34:30;;;;;;;3.53;1.90;;;18.10;78.40;;;;;;5012945;28;20030;-74
2022/08/21 00:36:55;;;;;;;2.78;1.80;;;18.10;78.30;;;;;;5014302;28;20033;-73
2022/08/21 00:39:21;;;;;;;3.78;1.98;;;18.00;78.30;;;;;;5016064;28;20045;-73
2022/08/21 00:41:46;;;;;;;3.83;1.70;;;18.00;78.30;;;;;;5027190;28;20040;-74
2022/08/21 00:44:13;;;;;;;2.38;1.80;;;17.90;78.40;;;;;;5025108;28;20037;-73
2022/08/21 00:46:38;;;;;;;2.25;1.65;;;17.90;78.50;;;;;;5011746;28;20406;-73
2022/08/21 00:49:05;;;;;;;3.75;1.67;;;17.90;78.60;;;;;;5010565;28;20131;-73
2022/08/21 00:51:43;;;;;;;3.75;1.80;;;17.90;78.50;;;;;;4994435;28;20059;-73
2022/08/21 00:54:09;;;;;;;1.65;1.48;;;17.90;78.70;;;;;;5027045;28;20059;-73
2022/08/21 00:56:36;;;;;;;2.55;2.22;;;17.90;78.40;;;;;;4999838;28;20036;-73
2022/08/21 00:59:02;;;;;;;1.90;1.75;;;17.90;78.40;;;;;;5028379;28;20044;-74
2022/08/21 01:01:27;;;;;;;5.47;2.45;;;17.90;78.50;;;;;;5015296;28;20033;-73
2022/08/21 01:03:53;;;;;;;4.72;3.05;;;17.80;78.40;;;;;;5029237;28;20044;-73
2022/08/21 01:06:18;;;;;;;4.90;2.53;;;17.80;78.60;;;;;;5030341;28;20033;-74
2022/08/21 01:08:44;;;;;;;5.50;3.30;;;17.80;78.70;;;;;;5012404;28;20037;-73
2022/08/21 01:11:10;;;;;;;3.45;2.17;;;17.70;78.70;;;;;;4994559;28;20041;-74
2022/08/21 01:13:36;;;;;;;2.15;1.95;;;17.70;78.80;;;;;;5021490;28;20044;-74
2022/08/21 01:16:03;;;;;;;3.63;2.47;;;17.70;78.90;;;;;;5015268;28;20083;-74
2022/08/21 01:18:28;;;;;;;3.88;2.60;;;17.70;78.80;;;;;;5014873;28;20791;-73
2022/08/21 01:21:08;;;;;;;3.67;3.10;;;17.70;78.70;;;;;;5029047;28;20087;-73
2022/08/21 01:23:35;;;;;;;4.05;2.42;;;17.60;78.80;;;;;;5015742;28;20044;-74
2022/08/21 01:26:01;;;;;;;2.97;2.67;;;17.60;78.70;;;;;;5033073;28;20048;-73
2022/08/21 01:28:27;;;;;;;6.00;3.50;;;17.60;78.70;;;;;;5029885;28;20041;-73
2022/08/21 01:30:52;;;;;;;9.13;3.25;;;17.60;78.60;;;;;;5015429;28;20044;-74
2022/08/21 01:33:19;;;;;;;7.82;3.30;;;17.50;78.60;;;;;;5014504;28;20033;-74
2022/08/21 01:35:45;;;;;;;4.65;4.25;;;17.50;78.70;;;;;;5000009;28;20686;-73
2022/08/21 01:38:10;;;;;;;3.47;3.17;;;17.40;78.70;;;;;;5030858;28;20037;-74
2022/08/21 01:40:36;;;;;;;5.20;3.60;;;17.40;78.70;;;;;;5014886;28;20060;-74
2022/08/21 01:43:02;;;;;;;2.83;2.35;;;17.30;78.70;;;;;;5048717;28;20407;-73
2022/08/21 01:45:28;;;;;;;4.28;3.63;;;17.30;78.70;;;;;;5013713;28;20033;-74
2022/08/21 01:47:53;;;;;;;5.85;3.63;;;17.30;78.80;;;;;;5029475;28;20123;-73
2022/08/21 01:50:19;;;;;;;3.33;2.90;;;17.30;78.80;;;;;;5013549;28;20227;-73
2022/08/21 01:52:45;;;;;;;4.18;3.85;;;17.30;78.80;;;;;;5027268;28;20102;-73
2022/08/21 01:55:11;;;;;;;6.63;4.40;;;17.20;78.70;;;;;;5032499;28;20096;-74
2022/08/21 01:57:37;;;;;;;7.47;4.50;;;17.30;78.80;;;;;;5015214;28;20039;-74
2022/08/21 02:00:05;;;;;;;6.28;4.57;;;17.20;78.80;;;;;;5011679;28;20548;-74
2022/08/21 02:02:30;;;;;;;6.65;4.50;;;17.20;78.90;;;;;;5030050;28;20037;-73
2022/08/21 02:04:56;;;;;;;4.43;3.90;;;17.10;79.00;;;;;;4992058;28;20405;-72
2022/08/21 02:07:22;;;;;;;6.07;5.10;;;17.10;79.00;;;;;;5016310;28;20032;-73
2022/08/21 02:09:47;;;;;;;6.55;4.22;;;17.10;79.10;;;;;;5012662;28;20045;-74
2022/08/21 02:12:13;;;;;;;4.70;4.18;;;17.00;79.20;;;;;;5013036;28;20041;-73
2022/08/21 02:14:38;;;;;;;6.22;4.32;;;17.00;79.20;;;;;;5014991;28;20028;-72
2022/08/21 02:17:04;;;;;;;4.30;3.90;;;17.00;79.30;;;;;;5028491;28;20041;-74
2022/08/21 02:19:29;;;;;;;5.82;4.20;;;17.00;79.30;;;;;;5031748;28;20040;-74
2022/08/21 02:21:55;;;;;;;6.82;3.97;;;17.00;79.30;;;;;;5033452;28;20032;-75
2022/08/21 02:24:20;;;;;;;7.50;4.65;;;16.90;79.20;;;;;;5011515;28;20049;-74
2022/08/21 02:26:46;;;;;;;4.50;4.10;;;16.90;79.20;;;;;;5032353;28;20128;-73
2022/08/21 02:29:11;;;;;;;5.57;4.80;;;16.90;79.30;;;;;;5029649;28;20109;-74
2022/08/21 02:31:37;;;;;;;4.65;3.90;;;16.90;79.30;;;;;;5013656;28;20036;-74
2022/08/21 02:34:02;;;;;;;9.07;4.38;;;16.90;79.30;;;;;;5029978;28;20700;-73
2022/08/21 02:36:28;;;;;;;5.43;4.93;;;16.90;79.30;;;;;;5030833;28;21588;-74
2022/08/21 02:38:54;;;;;;;4.80;4.30;;;16.90;79.30;;;;;;5013688;28;20056;-73
2022/08/21 02:41:20;;;;;;;5.10;3.65;;;16.90;79.30;;;;;;5012113;28;20037;-75
2022/08/21 02:43:46;;;;;;;6.07;4.57;;;16.90;79.30;;;;;;5027246;28;20041;-74
2022/08/21 02:46:12;;;;;;;5.10;4.60;;;16.90;79.30;;;;;;5029922;28;20029;-74
2022/08/21 02:48:38;;;;;;;6.20;4.60;;;16.90;79.40;;;;;;5014214;28;20037;-73
2022/08/21 02:51:06;;;;;;;5.70;4.70;;;16.80;79.50;;;;;;5033669;28;20084;-74
2022/08/21 02:53:31;;;;;;;4.85;3.95;;;16.70;79.50;;;;;;5033287;28;20547;-74
2022/08/21 02:55:58;;;;;;;6.97;5.45;;;16.70;79.60;;;;;;5031141;28;20037;-73
2022/08/21 02:58:30;;;;;;;4.78;4.28;;;16.60;79.60;;;;;;5031870;28;20037;-74
2022/08/21 03:00:56;;;;;;;4.90;4.40;;;16.60;79.70;;;;;;5017084;28;20055;-74
2022/08/21 03:03:22;;;;;;;5.32;4.32;;;16.60;79.70;;;;;;5033101;28;20557;-73
2022/08/21 03:05:47;;;;;;;10.98;4.95;;;16.60;79.80;;;;;;5018498;28;20058;-73
2022/08/21 03:08:13;;;;;;;8.13;4.18;;;16.60;79.80;;;;;;5015686;28;20065;-74
2022/08/21 03:10:41;;;;;;;5.20;4.47;;;16.50;79.70;;;;;;5000197;28;20171;-73
2022/08/21 03:13:07;;;;;;;3.97;3.40;;;16.50;79.80;;;;;;5032287;28;20036;-74
2022/08/21 03:15:33;;;;;;;3.95;3.55;;;16.50;79.80;;;;;;5015805;28;20785;-74
2022/08/21 03:17:58;;;;;;;5.22;4.20;;;16.50;79.80;;;;;;5016434;28;20066;-73
2022/08/21 03:20:25;;;;;;;5.93;4.15;;;16.50;79.70;;;;;;5031287;28;20037;-74
2022/08/21 03:22:51;;;;;;;6.18;4.65;;;16.50;79.60;;;;;;5014409;28;20227;-73
2022/08/21 03:25:18;;;;;;;5.38;4.35;;;16.50;79.60;;;;;;5016035;28;20070;-74
2022/08/21 03:27:44;;;;;;;5.63;4.75;;;16.40;79.50;;;;;;5022102;28;20037;-74
2022/08/21 03:30:10;;;;;;;4.65;4.22;;;16.40;79.50;;;;;;5029684;28;20029;-73
2022/08/21 03:32:36;;;;;;;9.70;5.45;;;16.40;79.50;;;;;;5031303;28;20029;-74
2022/08/21 03:35:01;;;;;;;5.57;4.10;;;16.40;79.50;;;;;;5014981;28;20044;-75
2022/08/21 03:37:27;;;;;;;5.53;4.97;;;16.40;79.60;;;;;;5031061;28;20040;-73
2022/08/21 03:39:52;;;;;;;5.60;4.50;;;16.30;79.50;;;;;;5029098;28;20064;-74
2022/08/21 03:42:18;;;;;;;7.47;4.63;;;16.30;79.60;;;;;;5045222;28;20130;-73
2022/08/21 03:44:43;;;;;;;6.53;4.55;;;16.30;79.60;;;;;;5030981;28;20098;-74
2022/08/21 03:47:09;;;;;;;4.47;4.07;;;16.30;79.60;;;;;;5031547;28;20036;-73
2022/08/21 03:49:35;;;;;;;6.28;4.53;;;16.20;79.60;;;;;;5029819;28;20029;-73
2022/08/21 03:52:00;;;;;;;7.60;5.15;;;16.20;79.60;;;;;;5031057;28;20025;-73
2022/08/21 03:54:26;;;;;;;4.22;3.83;;;16.20;79.70;;;;;;5015510;28;20093;-73
2022/08/21 03:56:51;;;;;;;5.32;4.30;;;16.20;79.70;;;;;;5030522;28;20108;-73
2022/08/21 03:59:17;;;;;;;5.20;4.70;;;16.20;79.60;;;;;;5019182;28;20045;-74
2022/08/21 04:01:56;;;;;;;5.20;4.28;;;16.20;79.60;;;;;;5026165;28;20036;-73
2022/08/21 04:04:22;;;;;;;6.15;4.65;;;16.20;79.70;;;;;;5011489;28;20059;-72
2022/08/21 04:06:47;;;;;;;4.68;4.20;;;16.20;79.60;;;;;;5026165;28;20049;-73
2022/08/21 04:09:13;;;;;;;5.43;4.50;;;16.10;79.50;;;;;;5045021;28;20037;-73
2022/08/21 04:11:38;;;;;;;8.30;4.38;;;16.20;79.60;;;;;;5028656;28;20131;-73
2022/08/21 04:14:04;;;;;;;4.75;4.30;;;16.10;79.60;;;;;;4995985;28;20119;-74
2022/08/21 04:16:30;;;;;;;6.20;4.18;;;16.10;79.60;;;;;;5046006;28;20036;-73
2022/08/21 04:18:56;;;;;;;4.85;4.35;;;16.10;79.50;;;;;;5014608;28;20041;-73
2022/08/21 04:21:21;;;;;;;5.07;4.57;;;16.10;79.40;;;;;;5029114;28;20040;-73
2022/08/21 04:23:47;;;;;;;4.85;4.45;;;16.10;79.50;;;;;;5012976;28;20087;-73
2022/08/21 04:26:12;;;;;;;4.80;4.28;;;16.10;79.50;;;;;;5029986;28;20029;-73
2022/08/21 04:28:38;;;;;;;8.02;4.97;;;16.10;79.60;;;;;;5017742;28;20730;-72
2022/08/21 04:31:03;;;;;;;5.22;3.90;;;16.10;79.60;;;;;;5045497;28;20524;-74
2022/08/21 04:33:29;;;;;;;7.35;5.65;;;16.00;79.60;;;;;;5023072;28;20037;-73
2022/08/21 04:35:55;;;;;;;5.40;4.85;;;16.00;79.60;;;;;;5026493;28;20041;-73
2022/08/21 04:38:20;;;;;;;5.63;4.57;;;15.90;79.50;;;;;;5041933;28;20036;-74
2022/08/21 04:40:46;;;;;;;5.20;4.55;;;16.00;79.70;;;;;;5008031;28;20037;-73
2022/08/21 04:43:11;;;;;;;5.30;4.75;;;15.90;80.40;;;;;;5007114;28;20055;-74
2022/08/21 04:45:42;;;;;;;5.97;5.07;;;15.90;79.70;;;;;;5024361;28;20063;-73
2022/08/21 04:48:09;;;;;;;8.40;5.00;;;15.90;79.70;;;;;;5004228;28;20040;-72
2022/08/21 04:50:41;;;;;;;5.10;4.35;;;15.90;79.70;;;;;;5027109;28;20087;-73
2022/08/21 04:53:09;;;;;;;6.15;4.55;;;15.90;80.60;;;;;;5003936;28;20029;-74
2022/08/21 04:55:34;;;;;;;5.70;5.13;;;15.90;79.70;;;;;;5011274;28;20486;-73
2022/08/21 04:58:00;;;;;;;6.50;4.88;;;15.90;79.60;;;;;;5025355;28;20033;-73
2022/08/21 05:00:26;;;;;;;6.97;4.68;;;15.90;79.60;;;;;;5024878;28;20033;-73
2022/08/21 05:02:54;;;;;;;5.28;4.78;;;15.90;79.60;;;;;;5023918;28;20079;-73
2022/08/21 05:05:19;;;;;;;5.50;4.97;;;15.90;79.60;;;;;;5026643;28;20037;-73
2022/08/21 05:07:45;;;;;;;4.57;4.18;;;15.90;79.60;;;;;;5008470;28;20048;-72
2022/08/21 05:10:10;;;;;;;4.63;3.85;;;15.90;79.60;;;;;;5011778;28;20453;-72
2022/08/21 05:12:36;;;;;;;5.35;4.05;;;15.90;79.60;;;;;;5027196;28;20041;-73
2022/08/21 05:15:02;;;;;;;4.35;3.95;;;15.90;79.60;;;;;;5012984;28;20326;-73
2022/08/21 05:17:29;;;;;;;5.80;4.63;;;15.90;79.60;;;;;;5010496;28;20041;-73
2022/08/21 05:19:54;;;;;;;4.72;4.22;;;15.90;79.60;;;;;;5025874;28;20036;-73
2022/08/21 05:22:21;;;;;;;5.03;4.55;;;15.90;79.50;;;;;;5027223;28;20047;-73
2022/08/21 05:24:47;;;;;;;6.07;5.40;;;15.90;79.50;;;;;;5026288;28;20611;-73
2022/08/21 05:27:12;;;;;;;6.55;4.68;;;15.90;79.60;;;;;;5032338;28;20029;-73
2022/08/21 05:29:38;;;;;;;4.78;4.38;;;15.90;79.60;;;;;;5045190;28;20053;-74
2022/08/21 05:32:11;;;;;;;4.47;4.05;;;15.90;79.60;;;;;;5029514;28;20071;-73
2022/08/21 05:34:36;;;;;;;8.15;4.65;;;15.90;79.70;;;;;;5009331;28;20116;-73
2022/08/21 05:37:02;;;;;;;7.75;5.03;;;15.90;79.60;;;;;;5013083;28;20053;-73
2022/08/21 05:39:28;;;;;;;6.60;5.05;;;15.90;79.70;;;;;;5027341;28;20032;-73
2022/08/21 05:41:53;;;;;;;5.30;4.80;;;15.90;79.70;;;;;;5027626;28;20041;-74
2022/08/21 05:44:19;;;;;;;5.30;4.80;;;15.90;79.70;;;;;;5029166;28;20136;-73
2022/08/21 05:46:45;;;;;;;4.72;4.22;;;16.00;79.80;;;;;;5044698;28;20103;-75
2022/08/21 05:49:11;;;;;;;7.25;5.45;;;16.00;79.70;;;;;;5027029;28;20429;-74
2022/08/21 05:51:36;;;;;;;6.43;5.40;;;16.00;79.60;;;;;;5011227;28;20029;-74
2022/08/21 05:54:02;;;;;;;5.22;4.72;;;16.00;79.70;;;;;;5028636;28;20041;-75
2022/08/21 05:56:27;;;;;;;5.53;4.90;;;16.10;79.70;;;;;;5012847;28;20060;-73
2022/08/21 05:58:53;;;;;;;5.82;5.22;;;16.10;79.60;;;;;;5028901;28;20043;-74
2022/08/21 06:01:18;;;;;;;7.88;5.82;;;16.10;79.60;;;;;;5027081;28;20056;-73
2022/08/21 06:03:44;;;;;;;5.50;4.65;;;16.10;79.60;;;;;;5044288;28;20047;-73
2022/08/21 06:06:09;;;;;;;5.03;4.53;;;16.20;79.60;;;;;;5043183;28;20060;-73
2022/08/21 06:08:35;;;;;;;5.07;4.57;;;16.20;79.40;;;;;;5045976;28;20571;-74
2022/08/21 06:11:01;;;;;;;4.72;4.32;;;16.30;79.40;;;;;;5024935;28;20072;-74
2022/08/21 06:13:26;;;;;;;5.13;4.40;;;16.30;79.30;;;;;;4986252;28;20088;-72
2022/08/21 06:16:12;;;;;;;4.75;4.25;;;16.40;79.40;;;;;;5004758;28;20034;-72
2022/08/21 06:18:38;;;;;;;4.38;3.78;;;16.50;80.10;;;;;;5000140;28;20481;-73
2022/08/21 06:21:04;;;;;;;3.90;3.50;;;16.50;79.50;;;;;;5000966;28;20161;-73
2022/08/21 06:23:29;;;;;;;5.05;4.22;;;16.60;79.60;;;;;;5021828;28;20098;-73
2022/08/21 06:25:55;;;;;;;6.15;4.03;;;16.60;79.50;;;;;;5022139;28;20038;-73
2022/08/21 06:28:20;;;;;;;5.22;4.22;;;16.70;79.60;;;;;;5025544;28;20572;-73
2022/08/21 06:30:46;;;;;;;5.07;4.57;;;16.80;79.60;;;;;;5009360;28;20099;-73
2022/08/21 06:33:11;;;;;;;4.30;3.90;;;16.80;79.60;;;;;;5028093;28;20061;-73
2022/08/21 06:35:37;;;;;;;6.35;4.63;;;16.90;79.50;;;;;;5023911;28;20029;-74
2022/08/21 06:38:02;;;;;;;7.20;5.32;;;17.00;79.60;;;;;;5026906;28;20068;-73
2022/08/21 06:40:28;;;;;;;4.80;4.20;;;17.10;79.60;;;;;;5024850;28;20037;-73
2022/08/21 06:42:54;;;;;;;6.80;5.07;;;17.20;79.60;;;;;;5007919;28;20124;-74
2022/08/21 06:45:20;;;;;;;7.53;5.95;;;17.30;79.40;;;;;;5027997;28;20072;-73
2022/08/21 06:47:45;;;;;;;6.43;5.75;;;17.40;79.50;;;;;;5010747;28;20044;-74
2022/08/21 06:50:12;;;;;;;6.68;5.53;;;17.50;79.50;;;;;;5023548;28;20116;-73
2022/08/21 06:52:38;;;;;;;6.00;5.22;;;17.60;79.60;;;;;;4984222;28;20029;-73
2022/08/21 06:55:08;;;;;;;7.22;6.43;;;17.60;79.40;;;;;;5027366;28;20033;-72
2022/08/21 06:57:33;;;;;;;5.80;5.20;;;17.80;79.60;;;;;;4979591;28;20030;-73
2022/08/21 06:59:59;;;;;;;5.53;4.97;;;17.90;79.30;;;;;;5006673;28;20041;-72
2022/08/21 07:02:24;;;;;;;7.53;5.60;;;18.00;79.20;;;;;;5024268;28;20021;-72
2022/08/21 07:04:50;;;;;;;8.55;6.68;;;18.10;79.10;;;;;;5008132;28;20033;-72
2022/08/21 07:07:16;;;;;;;6.35;5.75;;;18.20;79.80;;;;;;5021444;28;20037;-72
2022/08/21 07:09:41;;;;;;;6.47;5.78;;;18.30;79.00;;;;;;5026316;28;20704;-72
2022/08/21 07:12:07;;;;;;;6.25;4.97;;;18.50;78.90;;;;;;5005719;28;20499;-71
2022/08/21 07:14:33;;;;;;;6.13;5.50;;;18.60;78.90;;;;;;5006731;28;20523;-72
2022/08/21 07:16:58;;;;;;;8.95;5.82;;;18.70;78.70;;;;;;5023209;28;20077;-73
2022/08/21 07:19:24;;;;;;;6.25;5.32;;;18.80;78.60;;;;;;4989172;28;20100;-73
2022/08/21 07:21:49;;;;;;;5.82;4.78;;;18.90;78.40;;;;;;5006063;28;20044;-73
2022/08/21 07:24:15;;;;;;;4.93;4.38;;;19.10;78.40;;;;;;5010459;28;20042;-73
2022/08/21 07:26:40;;;;;;;6.65;5.30;;;19.20;78.10;;;;;;5010787;28;20041;-73
2022/08/21 07:29:06;;;;;;;6.85;5.18;;;19.40;77.90;;;;;;4990814;28;20038;-75
2022/08/21 07:31:31;;;;;;;5.85;4.85;;;19.50;77.70;;;;;;4990134;28;20066;-73
2022/08/21 07:33:57;;;;;;;6.82;5.97;;;19.70;77.50;;;;;;5021522;28;20041;-74
2022/08/21 07:36:23;;;;;;;6.40;4.75;;;19.80;77.30;;;;;;5008417;28;20037;-73
2022/08/21 07:38:48;;;;;;;4.85;4.05;;;20.00;77.20;;;;;;5012271;28;20089;-73
2022/08/21 07:41:18;;;;;;;4.25;3.83;;;20.10;76.80;;;;;;4994761;28;20050;-75
2022/08/21 07:43:44;;;;;;;4.93;4.45;;;20.30;76.50;;;;;;4994941;28;20067;-74
2022/08/21 07:46:09;;;;;;;5.18;4.68;;;20.50;76.20;;;;;;5025572;28;20230;-73
2022/08/21 07:48:35;;;;;;;5.20;4.60;;;20.60;75.90;;;;;;4991509;28;20050;-75
2022/08/21 07:51:02;;;;;;;6.25;5.05;;;20.80;75.80;;;;;;5001797;28;20554;-73
2022/08/21 07:53:28;;;;;;;4.75;4.22;;;20.90;75.50;;;;;;5004274;28;20056;-74
2022/08/21 07:55:56;;;;;;;5.00;3.53;;;21.10;75.30;;;;;;4990837;28;20038;-73
2022/08/21 07:58:22;;;;;;;5.53;4.90;;;21.30;74.80;;;;;;4987043;28;20112;-73
2022/08/21 08:00:47;;;;;;;6.32;4.30;;;21.40;74.30;;;;;;5006348;28;20038;-74
2022/08/21 08:03:13;;;;;;;5.93;4.60;;;21.60;73.90;;;;;;5010705;28;20034;-72
2022/08/21 08:05:39;;;;;;;5.07;4.43;;;21.80;74.40;;;;;;5008367;28;20076;-73
2022/08/21 08:08:05;;;;;;;5.50;4.22;;;21.90;73.10;;;;;;5007199;28;20042;-74
2022/08/21 08:10:30;;;;;;;6.82;4.78;;;22.10;72.80;;;;;;4996144;28;20133;-72
2022/08/21 08:12:56;;;;;;;5.93;4.82;;;22.20;72.40;;;;;;5015331;28;20044;-72
2022/08/21 08:15:23;;;;;;;4.53;4.07;;;22.40;72.00;;;;;;5018307;28;20084;-70
2022/08/21 08:17:49;;;;;;;3.97;3.58;;;22.50;71.60;;;;;;5016704;28;20113;-71
2022/08/21 08:20:15;;;;;;;7.72;4.18;;;22.70;71.30;;;;;;5012450;28;20164;-72
2022/08/21 08:22:42;;;;;;;4.68;4.22;;;22.80;70.80;;;;;;5013310;28;20033;-72
2022/08/21 08:25:08;;;;;;;6.30;4.63;;;23.00;70.40;;;;;;4999617;28;20417;-72
2022/08/21 08:27:33;;;;;;;5.05;3.90;;;23.20;70.00;;;;;;5002637;28;20558;-72
2022/08/21 08:29:59;;;;;;;3.83;3.20;;;23.40;69.60;;;;;;4996295;28;20038;-73
2022/08/21 08:32:25;;;;;;;6.68;3.40;;;23.50;69.20;;;;;;4998675;28;20039;-73
2022/08/21 08:34:51;;;;;;;2.95;2.75;;;23.80;68.70;;;;;;5019507;28;20034;-73
2022/08/21 08:37:18;;;;;;;4.65;2.95;;;24.00;68.40;;;;;;5022546;28;20040;-72
2022/08/21 08:39:45;;;;;;;3.78;3.40;;;24.20;67.90;;;;;;5001508;28;20060;-72
2022/08/21 08:42:13;;;;;;;3.88;3.47;;;24.50;67.40;;;;;;5015674;28;20055;-72
2022/08/21 08:44:43;;;;;;;3.95;3.65;;;24.60;66.70;;;;;;5000476;28;20037;-72
2022/08/21 08:47:13;;;;;;;8.88;3.72;;;24.80;66.40;;;;;;5002717;28;20048;-72
2022/08/21 08:50:12;;;;;;;6.45;3.67;;;24.90;66.00;;;;;;5035401;28;20041;-74
2022/08/21 08:52:43;;;;;;;4.85;3.70;;;25.10;65.20;;;;;;5034261;28;20049;-74
2022/08/21 08:55:17;;;;;;;4.65;4.25;;;25.30;65.10;;;;;;5016838;28;20103;-75
2022/08/21 08:57:45;;;;;;;48.50;5.70;;;25.50;64.30;;;;;;5020939;28;20046;-77
2022/08/21 09:00:12;;;;;;;6.13;3.60;;;25.70;64.30;;;;;;5040235;28;20064;-77
2022/08/21 09:02:41;;;;;;;4.15;3.30;;;25.80;63.80;;;;;;5020332;28;20030;-76
2022/08/21 09:05:07;;;;;;;3.13;2.83;;;26.10;63.30;;;;;;5025167;28;20108;-75
2022/08/21 09:07:53;;;;;;;6.57;3.03;;;26.30;62.90;;;;;;5037901;28;20522;-77
2022/08/21 09:10:39;;;;;;;3.53;3.03;;;26.60;62.10;;;;;;5050056;28;20037;-77
2022/08/21 09:13:35;;;;;;;5.40;2.65;;;26.80;61.30;;;;;;5033703;28;20108;-77
2022/08/21 09:16:29;;;;;;;3.95;2.63;;;27.10;60.40;;;;;;5042606;28;20113;-76
2022/08/21 09:19:07;;;;;;;5.05;3.17;;;27.40;59.80;;;;;;5045406;28;20059;-77
2022/08/21 09:22:10;;;;;;;3.33;2.65;;;27.70;59.30;;;;;;5048744;28;20028;-76
2022/08/21 09:24:55;;;;;;;3.42;2.50;;;27.90;58.70;;;;;;5043495;28;20100;-77
2022/08/21 09:27:21;;;;;;;3.90;2.20;;;28.00;58.10;;;;;;5048824;28;20044;-76
2022/08/21 09:29:50;;;;;;;5.93;2.67;;;28.20;58.30;;;;;;5053831;28;20037;-74
2022/08/21 09:32:20;;;;;;;4.03;2.15;;;28.40;57.80;;;;;;5029645;28;20153;-75
2022/08/21 09:35:11;;;;;;;4.55;2.22;;;28.50;57.20;;;;;;5035899;28;20029;-75
2022/08/21 09:37:48;;;;;;;4.45;2.67;;;28.70;54.40;;;;;;5033132;28;20036;-74
2022/08/21 09:40:37;;;;;;;5.75;2.30;;;28.90;54.20;;;;;;5027050;28;20040;-74
2022/08/21 09:43:02;;;;;;;8.02;2.25;;;29.10;53.90;;;;;;5044565;28;20139;-74
2022/08/21 09:45:28;;;;;;;8.30;2.88;;;29.40;53.80;;;;;;5055360;28;20052;-73
2022/08/21 09:47:54;;;;;;;3.85;2.17;;;29.60;53.20;;;;;;5023971;28;20430;-73
2022/08/21 09:50:24;;;;;;;3.42;1.70;;;29.70;52.40;;;;;;5041050;28;20009;-75
2022/08/21 09:52:58;;;;;;;3.38;2.35;;;29.80;51.50;;;;;;5040480;28;20051;-75
2022/08/21 09:58:32;;;;;;;2.75;2.15;;;30.10;49.80;;;;;;5020445;28;20040;-73
2022/08/21 10:00:59;;;;;;;4.68;2.13;;;30.30;50.40;;;;;;5020844;28;20120;-73
2022/08/21 10:03:24;;;;;;;3.17;1.80;;;30.30;50.10;;;;;;5053054;28;20120;-73
2022/08/21 10:05:57;;;;;;;4.38;1.85;;;30.40;49.70;;;;;;5018564;28;20075;-74
2022/08/21 10:08:24;;;;;;;2.92;2.33;;;30.40;48.80;;;;;;5040065;28;20063;-74
2022/08/21 10:10:51;;;;;;;3.50;2.45;;;30.60;48.80;;;;;;5030468;28;20037;-75
2022/08/21 10:13:45;;;;;;;2.40;2.08;;;30.70;48.10;;;;;;5032944;28;20037;-74
2022/08/21 10:16:49;;;;;;;3.63;2.33;;;30.90;46.90;;;;;;5030355;28;20037;-71
2022/08/21 10:19:21;;;;;;;4.10;2.20;;;31.20;46.60;;;;;;5033002;28;20045;-74
2022/08/21 10:21:58;;;;;;;2.83;1.90;;;31.40;46.60;;;;;;5031348;28;20117;-74
2022/08/21 10:24:46;;;;;;;3.38;1.80;;;31.50;46.70;;;;;;5020237;28;20389;-73
2022/08/21 10:27:47;;;;;;;3.55;1.85;;;31.50;44.90;;;;;;5024376;28;20037;-73
2022/08/21 10:30:15;;;;;;;3.65;1.67;;;31.50;43.90;;;;;;5027407;28;20030;-73
2022/08/21 10:33:02;;;;;;;5.63;2.10;;;31.50;45.40;;;;;;5026249;28;20035;-73
2022/08/21 10:35:33;;;;;;;3.03;1.63;;;31.60;44.10;;;;;;5017272;28;20080;-74
2022/08/21 10:38:26;;;;;;;2.25;1.90;;;31.80;44.40;;;;;;5017071;28;20049;-74
2022/08/21 10:41:34;;;;;;;2.90;2.15;;;31.90;43.20;;;;;;5023662;28;20037;-73
2022/08/21 10:44:38;;;;;;;6.63;2.03;;;32.10;43.00;;;;;;4982067;28;20026;-75
2022/08/21 10:47:05;;;;;;;3.35;1.67;;;32.30;41.80;;;;;;5039675;28;20236;-75
2022/08/21 10:49:38;;;;;;;5.10;1.90;;;32.40;43.00;;;;;;5036729;28;20714;-74
2022/08/21 10:52:31;;;;;;;17.25;3.28;;;32.60;42.40;;;;;;5026648;28;20040;-75
2022/08/21 10:55:23;;;;;;;3.22;1.75;;;32.80;40.90;;;;;;5020219;28;20097;-75
2022/08/21 10:57:59;;;;;;;2.65;1.98;;;32.90;40.80;;;;;;5025605;28;20029;-75
2022/08/21 11:00:36;;;;;;;4.20;1.52;;;33.20;40.60;;;;;;5010320;28;20033;-76
2022/08/21 11:03:10;;;;;;;3.22;1.80;;;33.30;39.60;;;;;;5018210;28;20786;-75
2022/08/21 11:05:39;;;;;;;2.13;1.90;;;33.30;39.90;;;;;;5021448;28;20049;-77
2022/08/21 11:08:18;;;;;;;6.55;2.10;;;33.40;39.70;;;;;;5024048;28;20069;-76
2022/08/21 11:10:52;;;;;;;4.65;1.65;;;33.40;38.20;;;;;;5037530;28;20072;-76
2022/08/21 11:13:23;;;;;;;4.82;1.83;;;33.50;38.90;;;;;;5036862;28;20037;-75
2022/08/21 11:16:03;;;;;;;2.90;1.80;;;33.60;38.80;;;;;;5041175;28;20033;-76
2022/08/21 11:18:32;;;;;;;2.87;1.80;;;33.70;37.70;;;;;;5027712;28;20046;-77
2022/08/21 11:21:18;;;;;;;4.40;1.83;;;33.80;37.90;;;;;;5042887;28;23070;-76
2022/08/21 11:23:50;;;;;;;3.67;1.70;;;33.90;36.30;;;;;;5046170;28;20072;-77
2022/08/21 11:26:33;;;;;;;5.35;1.70;;;34.00;37.30;;;;;;5029696;28;20038;-77
2022/08/21 11:29:04;;;;;;;2.47;1.75;;;34.00;36.40;;;;;;5032203;28;20046;-76
2022/08/21 11:31:36;;;;;;;4.72;2.20;;;34.10;37.00;;;;;;5035540;28;20034;-76
2022/08/21 11:34:23;;;;;;;4.82;1.85;;;34.10;37.00;;;;;;5025632;28;20071;-74
2022/08/21 11:37:11;;;;;;;4.03;1.63;;;34.10;36.70;;;;;;5023461;28;20091;-75
2022/08/21 11:40:14;;;;;;;3.38;2.25;;;34.20;36.50;;;;;;5027331;28;20708;-73
2022/08/21 11:42:55;;;;;;;4.30;1.88;;;34.20;35.50;;;;;;5025895;28;20037;-73
2022/08/21 11:45:39;;;;;;;2.45;1.60;;;34.40;35.70;;;;;;5010432;28;20554;-72
2022/08/21 11:48:59;;;;;;;3.70;2.17;;;34.40;35.80;;;;;;5009662;28;20033;-72
2022/08/21 11:51:32;;;;;;;5.55;1.70;;;34.40;34.70;;;;;;4963111;28;20110;-73
2022/08/21 11:54:16;;;;;;;3.08;1.75;;;34.40;35.30;;;;;;4996758;28;20025;-74
2022/08/21 11:56:47;;;;;;;2.58;1.80;;;34.40;34.50;;;;;;5021454;28;20068;-75
2022/08/21 11:59:35;;;;;;;3.90;2.03;;;34.50;34.90;;;;;;5003865;28;20049;-74
2022/08/21 12:02:01;;;;;;;3.50;1.63;;;34.50;34.80;;;;;;5003084;28;20533;-74
2022/08/21 12:04:31;;;;;;;2.00;1.80;;;34.50;34.60;;;;;;5000143;28;20057;-73
2022/08/21 12:07:08;;;;;;;;;;;34.70;34.50;;;;;;5001943;28;20041;-73
2022/08/21 12:09:36;;;;;;;2.75;1.90;;;34.70;34.70;;;;;;5015696;28;19923;-72
2022/08/21 12:12:05;;;;;;;3.58;1.85;;;34.70;34.80;;;;;;5000733;28;20056;-74
2022/08/21 12:14:51;;;;;;;3.10;2.22;;;34.80;34.10;;;;;;5016088;28;20756;-74
2022/08/21 12:17:21;;;;;;;2.17;1.63;;;34.90;32.70;;;;;;5016987;28;20037;-73
2022/08/21 12:19:57;;;;;;;2.80;2.10;;;35.00;33.70;;;;;;5015573;28;20053;-72
2022/08/21 12:22:24;;;;;;;3.45;1.92;;;35.10;32.70;;;;;;5015045;28;20034;-72
2022/08/21 12:24:49;;;;;;;3.17;1.90;;;35.20;33.20;;;;;;5001924;28;20030;-72
2022/08/21 12:27:29;;;;;;;2.65;1.90;;;35.20;32.70;;;;;;5003972;28;20048;-72
2022/08/21 12:29:59;;;;;;;3.60;1.80;;;35.30;31.50;;;;;;4994283;28;20500;-73
2022/08/21 12:32:44;;;;;;;3.43;1.90;;;35.30;32.40;;;;;;5017004;28;20597;-73
2022/08/21 12:35:20;;;;;;;2.13;1.60;;;35.40;31.60;;;;;;5018074;28;20104;-72
2022/08/21 12:37:46;;;;;;;2.67;1.80;;;35.50;32.20;;;;;;5040078;28;20042;-72
2022/08/21 12:40:14;;;;;;;3.80;2.03;;;35.60;32.30;;;;;;5018035;28;20064;-73
2022/08/21 12:42:43;;;;;;;3.38;2.10;;;35.60;32.10;;;;;;5013275;28;20454;-72
2022/08/21 12:45:23;;;;;;;4.18;1.80;;;35.70;31.80;;;;;;5000857;28;20033;-74
2022/08/21 12:47:51;;;;;;;5.38;2.13;;;35.70;31.00;;;;;;5015103;28;20031;-72
2022/08/21 12:50:27;;;;;;;2.45;1.80;;;35.70;31.50;;;;;;5024719;28;20176;-72
2022/08/21 12:53:02;;;;;;;5.63;2.13;;;35.60;31.00;;;;;;4995424;28;20043;-72
2022/08/21 12:55:31;;;;;;;5.75;2.05;;;35.60;30.60;;;;;;5013089;28;20110;-72
2022/08/21 12:57:56;;;;;;;2.55;1.70;;;35.70;31.10;;;;;;5015243;28;20090;-74
2022/08/21 13:00:23;;;;;;;5.35;2.03;;;35.60;31.00;;;;;;5001433;28;20033;-73
2022/08/21 13:02:50;;;;;;;5.10;1.95;;;35.70;30.90;;;;;;5001651;28;20033;-73